Home > Products > Valid Products > TAF

000
FTUS46 KMTR 012321
TAFSFO
TAF
KSFO 012321Z 0200/0306 27008KT P6SM SKC
     FM020400 29005KT P6SM SKC
     FM021000 19004KT P6SM SCT020
      TEMPO 0212/0216 BKN020
     FM022000 28015KT P6SM SCT200
     FM030400 28010KT P6SM BKN150=



000
FTUS46 KMTR 012321
TAFSTS
TAF
KSTS 012321Z 0200/0224 22008KT P6SM SKC
     FM021500 VRB03KT 4SM BR OVC010
     FM021800 VRB03KT P6SM SCT015
     FM022000 19010KT P6SM SCT200=



000
FTUS46 KMTR 012321
TAFSJC
TAF
KSJC 012321Z 0200/0224 20012KT P6SM SKC
     FM020200 30010KT P6SM SKC
     FM020400 VRB03KT P6SM SKC
     FM021000 14007KT P6SM SKC
     FM021700 VRB03KT P6SM SCT200
     FM022000 31012KT P6SM SCT200=



000
FTUS46 KMTR 012321
TAFLVK
TAF
KLVK 012321Z 0200/0224 23008KT P6SM SKC
     FM020400 VRB03KT P6SM SKC
     FM022000 23015KT P6SM SCT200=



000
FTUS46 KMTR 012321
TAFOAK
TAF
KOAK 012321Z 0200/0306 29012KT P6SM SKC
     FM020400 31005KT P6SM SKC
     FM021000 30005KT P6SM BKN020
     FM021700 25006KT P6SM FEW020 SCT200
     FM022000 27012KT P6SM FEW015 SCT200
     FM030400 27006KT P6SM BKN150=



000
FTUS46 KMTR 012321
TAFMRY
TAF
KMRY 012321Z 0200/0224 19010KT P6SM SKC
     FM020300 24004KT P6SM SKC
     FM020500 16003KT P6SM BKN015
     FM020700 10003KT P6SM OVC010
     FM021700 07003KT P6SM FEW010 SCT200
     FM021900 25008KT P6SM SCT200=



000
FTUS46 KMTR 012321
TAFSNS
TAF
KSNS 012321Z 0200/0224 31010KT P6SM SKC
     FM020300 VRB03KT P6SM BKN012
     FM021000 12008KT P6SM OVC010
     FM021700 11006KT P6SM SCT200
     FM022000 30010KT P6SM SCT200=



000
FTUS46 KMTR 012211 AAA
TAFSJC
TAF AMD
KSJC 012211Z 0122/0218 21011KT P6SM SKC
     FM020200 30010KT P6SM SKC
     FM020400 VRB03KT P6SM SKC
     FM021000 14007KT P6SM SKC=



000
FTUS46 KMTR 012109 AAA
TAFMRY
TAF AMD
KMRY 012109Z 0121/0218 19010KT P6SM SKC
     FM020300 24004KT P6SM SKC
     FM020500 16003KT P6SM BKN015
     FM020700 10003KT P6SM OVC010
     FM021700 07003KT P6SM FEW010 SCT200=



000
FTUS46 KMTR 012106 AAA
TAFSFO
TAF AMD
KSFO 012106Z 0121/0224 01003KT P6SM FEW035
     FM012300 27008KT P6SM SKC
     FM020400 29005KT P6SM SKC
     FM021000 19004KT P6SM SCT020
      TEMPO 0212/0216 BKN020
     FM022000 28010KT P6SM SCT200=



000
FTUS46 KMTR 012000 AAA
TAFSNS
TAF AMD
KSNS 012000Z 0120/0218 31010KT P6SM SKC
     FM020400 VRB03KT P6SM BKN012
     FM021000 12008KT P6SM OVC010
     FM021700 11006KT P6SM SCT200=



000
FTUS46 KMTR 011724
TAFLVK
TAF
KLVK 011724Z 0118/0218 11005KT P6SM SKC
     FM012000 07010KT P6SM SKC
     FM012200 27008KT P6SM SKC
     FM020400 29003KT P6SM SKC=



000
FTUS46 KMTR 011724
TAFSTS
TAF
KSTS 011724Z 0118/0218 34006KT P6SM SKC
     FM011900 VRB03KT P6SM SKC
     FM012200 22008KT P6SM SKC
     FM021500 VRB03KT 4SM BR OVC015=



000
FTUS46 KMTR 011724
TAFSJC
TAF
KSJC 011724Z 0118/0218 VRB03KT P6SM SKC
     FM012000 32010KT P6SM SKC
     FM020400 VRB03KT P6SM SKC
     FM021000 14007KT P6SM SKC=



000
FTUS46 KMTR 011724
TAFOAK
TAF
KOAK 011724Z 0118/0224 19006KT P6SM SKC
     FM012000 26008KT P6SM SKC
     FM012200 29012KT P6SM SKC
     FM020400 31005KT P6SM SKC
     FM021000 30005KT P6SM BKN020
     FM021700 25006KT P6SM FEW020 SCT200=



000
FTUS46 KMTR 011724
TAFSNS
TAF
KSNS 011724Z 0118/0218 12008KT P6SM SKC
     FM012100 31010KT P6SM SKC
     FM020400 VRB03KT P6SM BKN012
     FM021000 12008KT P6SM OVC010
     FM021700 11006KT P6SM SCT200=



000
FTUS46 KMTR 011724
TAFSFO
TAF
KSFO 011724Z 0118/0224 08004KT P6SM SKC
     FM012200 29014KT P6SM SKC
     FM020400 29010KT P6SM SKC
     FM021000 19004KT P6SM SCT020
      TEMPO 0212/0216 BKN020
     FM021700 30010KT P6SM SCT200=



000
FTUS46 KMTR 011724
TAFMRY
TAF
KMRY 011724Z 0118/0218 VRB03KT P6SM SKC
     FM012000 33005KT P6SM SKC
     FM020300 24004KT P6SM SKC
     FM020500 16003KT P6SM BKN015
     FM020700 10003KT P6SM OVC010
     FM021700 07003KT P6SM FEW010 SCT200=



000
FTUS46 KMTR 011500 AAA
TAFSFO
TAF AMD
KSFO 011500Z 0115/0218 05004KT P6SM SKC
     FM012200 29014KT P6SM SKC
     FM020400 29010KT P6SM SKC
     FM021000 19004KT P6SM SCT020=



000
FTUS46 KMTR 011500 AAA
TAFSFO
TAF AMD
KSFO 011500Z 0115/0218 05004KT P6SM SKC
     FM012200 29014KT P6SM SKC
     FM020400 29010KT P6SM SKC
     FM021000 19004KT P6SM SCT020=



000
FTUS46 KMTR 011123 AAA
TAFSNS
TAF AMD
KSNS 011123Z 0111/0212 VRB03KT 6SM HZ SKC
     FM011500 12008KT P6SM SKC
     FM012100 31010KT P6SM SKC
     FM020400 VRB03KT P6SM BKN012
     FM021000 10003KT P6SM OVC007=



000
FTUS46 KMTR 011122 AAA
TAFMRY
TAF AMD
KMRY 011122Z 0111/0212 09003KT 6SM HZ SKC
     FM011600 33005KT P6SM SKC
     FM020300 24004KT P6SM SKC
     FM020500 16003KT P6SM BKN015
     FM020700 10003KT P6SM OVC007=



000
FTUS46 KMTR 011120
TAFSTS
TAF
KSTS 011120Z 0112/0212 34008KT P6SM SKC
     FM011400 VRB03KT P6SM SKC
     FM011900 22008KT P6SM SKC=



000
FTUS46 KMTR 011120
TAFSFO
TAF
KSFO 011120Z 0112/0218 29003KT P6SM SKC
     FM011700 08004KT P6SM SKC
     FM012200 29014KT P6SM SKC
     FM020400 29010KT P6SM SKC
     FM021000 19004KT P6SM SCT020=



000
FTUS46 KMTR 011120
TAFSJC
TAF
KSJC 011120Z 0112/0212 11007KT P6SM SKC
     FM012000 32010KT P6SM SKC
     FM020400 VRB03KT P6SM SKC
     FM020900 17003KT P6SM SKC=



000
FTUS46 KMTR 011120
TAFLVK
TAF
KLVK 011120Z 0112/0212 11005KT P6SM SKC
     FM011900 07010KT P6SM SKC
     FM012200 27008KT P6SM SKC
     FM020400 29003KT P6SM SKC=



000
FTUS46 KMTR 011120
TAFOAK
TAF
KOAK 011120Z 0112/0218 28006KT P6SM SKC
     FM011500 12005KT P6SM SKC
     FM011900 26008KT P6SM SKC
     FM012200 29012KT P6SM SKC
     FM020400 31005KT P6SM SKC
     FM021000 30005KT P6SM BKN020=



000
FTUS46 KMTR 011120
TAFMRY
TAF
KMRY 011120Z 0112/0212 09003KT 6SM HZ SKC
     FM011600 33005KT P6SM SKC
     FM020300 24004KT P6SM SKC
     FM021000 10003KT P6SM SKC=



000
FTUS46 KMTR 011120
TAFSNS
TAF
KSNS 011120Z 0112/0212 VRB03KT 6SM HZ SKC
     FM011500 12008KT P6SM SKC
     FM012100 31010KT P6SM SKC
     FM020400 VRB03KT P6SM SKC
     FM021000 10003KT P6SM SKC=



000
FTUS46 KMTR 011120
TAFSTS
TAF
KSTS 011120Z 0112/0212 34008KT P6SM SKC
     FM011400 VRB03KT P6SM SKC
     FM011900 22008KT P6SM SKC=



000
FTUS46 KMTR 011120
TAFLVK
TAF
KLVK 011120Z 0112/0212 11005KT P6SM SKC
     FM011900 07010KT P6SM SKC
     FM012200 27008KT P6SM SKC
     FM020400 29003KT P6SM SKC=



000
FTUS46 KMTR 011120
TAFOAK
TAF
KOAK 011120Z 0112/0218 28006KT P6SM SKC
     FM011500 12005KT P6SM SKC
     FM011900 26008KT P6SM SKC
     FM012200 29012KT P6SM SKC
     FM020400 31005KT P6SM SKC
     FM021000 30005KT P6SM BKN020=



000
FTUS46 KMTR 010907 AAA
TAFSFO
TAF AMD
KSFO 010907Z 0109/0212 VRB03KT P6SM SKC
     FM011700 08004KT P6SM SKC
     FM012200 29014KT P6SM SKC
     FM020400 29010KT P6SM SKC=



000
FTUS46 KMTR 010907 AAA
TAFSFO
TAF AMD
KSFO 010907Z 0109/0212 VRB03KT P6SM SKC
     FM011700 08004KT P6SM SKC
     FM012200 29014KT P6SM SKC
     FM020400 29010KT P6SM SKC=



000
FTUS46 KMTR 010520
TAFSFO
TAF
KSFO 010520Z 0106/0212 28011G18KT P6SM SKC
     FM010700 28008KT P6SM SKC
     FM010900 VRB03KT P6SM SKC
     FM011700 08004KT P6SM SKC
     FM012200 29014KT P6SM SKC
     FM020400 29010KT P6SM SKC=



000
FTUS46 KMTR 010520
TAFOAK
TAF
KOAK 010520Z 0106/0212 VRB03KT P6SM SKC
     FM011600 12005KT P6SM SKC
     FM012100 26008KT P6SM SKC
     FM020400 31005KT P6SM SKC=



000
FTUS46 KMTR 010520
TAFMRY
TAF
KMRY 010520Z 0106/0206 VRB03KT P6SM SKC
     FM011800 33005KT P6SM SKC
     FM020300 24004KT P6SM SKC=



000
FTUS46 KMTR 010520
TAFLVK
TAF
KLVK 010520Z 0106/0206 07005KT P6SM SKC
     FM011900 07010KT P6SM SKC
     FM020400 07003KT P6SM SKC=



000
FTUS46 KMTR 010520
TAFSTS
TAF
KSTS 010520Z 0106/0206 34004KT P6SM SKC
     FM010800 34010KT P6SM SKC
     FM011400 VRB03KT P6SM SKC=



000
FTUS46 KMTR 010520
TAFSJC
TAF
KSJC 010520Z 0106/0206 VRB03KT P6SM SKC
     FM011300 18007KT P6SM SKC
     FM012000 32010KT P6SM SKC
     FM020400 VRB03KT P6SM SKC=



000
FTUS46 KMTR 010520
TAFSNS
TAF
KSNS 010520Z 0106/0206 25008KT P6SM SKC
     FM010700 VRB03KT P6SM SKC
     FM011500 12008KT P6SM SKC
     FM012100 31010KT P6SM SKC
     FM020400 VRB03KT P6SM SKC=



000
FTUS46 KMTR 010259 AAA
TAFSFO
TAF AMD
KSFO 010259Z 0103/0206 28018G24KT P6SM SKC
     FM010400 28011G18KT P6SM SKC
     FM010700 28008KT P6SM SKC
     FM010900 VRB03KT P6SM SKC
     FM011700 08004KT P6SM SKC
     FM012200 29012KT P6SM SKC
     FM020400 VRB03KT P6SM SKC=



000
FTUS46 KMTR 010259 AAA
TAFSFO
TAF AMD
KSFO 010259Z 0103/0206 28018G24KT P6SM SKC
     FM010400 28011G18KT P6SM SKC
     FM010700 28008KT P6SM SKC
     FM010900 VRB03KT P6SM SKC
     FM011700 08004KT P6SM SKC
     FM012200 29012KT P6SM SKC
     FM020400 VRB03KT P6SM SKC=



000
FTUS46 KMTR 302320
TAFMRY
TAF
KMRY 302320Z 0100/0124 25005KT P6SM SKC
     FM010500 VRB03KT P6SM SKC
     FM011800 33005KT P6SM SKC=



000
FTUS46 KMTR 302320
TAFSTS
TAF
KSTS 302320Z 0100/0124 35008G15KT P6SM SKC
     FM010400 34004KT P6SM SKC
     FM010800 34010KT P6SM SKC
     FM011400 34004KT P6SM SKC=



000
FTUS46 KMTR 302320
TAFOAK
TAF
KOAK 302320Z 0100/0206 28014G21KT P6SM SKC
     FM010400 28006KT P6SM SKC
     FM010600 VRB03KT P6SM SKC
     FM011600 12005KT P6SM SKC
     FM012100 26008KT P6SM SKC
     FM020400 31005KT P6SM SKC=



000
FTUS46 KMTR 302320
TAFSNS
TAF
KSNS 302320Z 0100/0124 28015G20KT P6SM SKC
     FM010400 25008KT P6SM SKC
     FM010700 VRB03KT P6SM SKC
     FM011500 12008KT P6SM SKC
     FM012100 31010KT P6SM SKC=



000
FTUS46 KMTR 302320
TAFLVK
TAF
KLVK 302320Z 0100/0124 07010G16KT P6SM SKC
     FM010300 07006KT P6SM SKC
     FM011900 07010KT P6SM SKC=



000
FTUS46 KMTR 302320
TAFSFO
TAF
KSFO 302320Z 0100/0206 28022G29KT P6SM SKC
     FM010400 28011G18KT P6SM SKC
     FM010700 28008KT P6SM SKC
     FM010900 VRB03KT P6SM SKC
     FM011700 08004KT P6SM SKC
     FM012200 29012KT P6SM SKC
     FM020400 VRB03KT P6SM SKC=



000
FTUS46 KMTR 302320
TAFSJC
TAF
KSJC 302320Z 0100/0124 29015G20KT P6SM SKC
     FM010300 32008KT P6SM SKC
     FM010500 VRB03KT P6SM SKC
     FM011300 18007KT P6SM SKC
     FM012000 32010KT P6SM SKC=



000
FTUS46 KMTR 302059 AAA
TAFSFO
TAF AMD
KSFO 302059Z 3021/0124 28022G29KT P6SM SKC
     FM010400 28011G18KT P6SM SKC
     FM010700 28008KT P6SM SKC
     FM010900 VRB03KT P6SM SKC
     FM011700 08004KT P6SM SKC
     FM012100 34007KT P6SM SKC=



000
FTUS46 KMTR 301722
TAFSFO
TAF
KSFO 301722Z 3018/0124 35015G22KT P6SM FEW200
     FM302100 28022G29KT P6SM SKC
     FM010400 28011G18KT P6SM SKC
     FM010700 28008KT P6SM SKC
     FM010900 VRB03KT P6SM SKC
     FM011700 08004KT P6SM SKC
     FM012100 34007KT P6SM SKC=



000
FTUS46 KMTR 301722
TAFMRY
TAF
KMRY 301722Z 3018/0118 26005KT P6SM SKC
     FM302000 27010G15KT P6SM SKC
     FM010200 25005KT P6SM SKC
     FM010500 VRB03KT P6SM SKC=



000
FTUS46 KMTR 301722
TAFOAK
TAF
KOAK 301722Z 3018/0124 33012KT P6SM SKC
     FM302100 28014G21KT P6SM SKC
     FM010100 27011G18KT P6SM SKC
     FM010400 28006KT P6SM SKC
     FM010600 VRB03KT P6SM SKC
     FM011600 12005KT P6SM SKC
     FM011800 26008KT P6SM SKC=



000
FTUS46 KMTR 301722
TAFSTS
TAF
KSTS 301722Z 3018/0118 35015G21KT P6SM SKC
     FM302100 33008G15KT P6SM SKC
     FM010400 34004KT P6SM SKC
     FM010800 34010KT P6SM SKC
     FM011400 34004KT P6SM SKC=



000
FTUS46 KMTR 301722
TAFSNS
TAF
KSNS 301722Z 3018/0118 28008KT P6SM SKC
     FM302100 28015G20KT P6SM SKC
     FM010400 25008KT P6SM SKC
     FM010700 VRB03KT P6SM SKC
     FM011500 12008KT P6SM SKC=



000
FTUS46 KMTR 301722
TAFLVK
TAF
KLVK 301722Z 3018/0118 01015G20KT P6SM SKC
     FM302100 03010G15KT P6SM SKC
     FM010000 07005KT P6SM SKC
     FM010300 VRB03KT P6SM SKC=



000
FTUS46 KMTR 301722
TAFSJC
TAF
KSJC 301722Z 3018/0118 28010G15KT P6SM SKC
     FM302000 29015G20KT P6SM SKC
     FM010300 32008KT P6SM SKC
     FM010500 VRB03KT P6SM SKC
     FM011300 18008KT P6SM SKC=



000
FTUS46 KMTR 301602 AAB
TAFSFO
TAF AMD
KSFO 301602Z 3016/0118 33012G22KT P6SM FEW200
     FM301900 28015G20KT P6SM SKC
     FM302100 28022G29KT P6SM SKC
     FM010400 28011G18KT P6SM SKC
     FM010800 VRB04KT P6SM SKC=



000
FTUS46 KMTR 301505 AAA
TAFSFO
TAF AMD
KSFO 301505Z 3015/0118 27005KT P6SM FEW200
     FM301900 28012G15KT P6SM SKC
     FM302100 28022G29KT P6SM SKC
     FM010400 28011G18KT P6SM SKC
     FM010800 VRB04KT P6SM SKC=



000
FTUS46 KMTR 301318 AAA
TAFMRY
TAF AMD
KMRY 301318Z 3013/0112 23008KT P6SM SKC
     FM301500 28009KT P6SM SKC
     FM301800 28010G16KT P6SM SKC
     FM010300 VRB04KT P6SM SKC=



000
FTUS46 KMTR 301317 AAA
TAFLVK
TAF AMD
KLVK 301317Z 3013/0112 34016G25KT P6SM SKC
     FM302200 VRB06KT P6SM SKC
     FM010300 VRB03KT P6SM SKC=



000
FTUS46 KMTR 301120
TAFLVK
TAF
KLVK 301120Z 3012/0112 VRB04KT P6SM SKC
     FM302200 VRB06KT P6SM SKC
     FM010300 VRB03KT P6SM SKC=



000
FTUS46 KMTR 301120
TAFOAK
TAF
KOAK 301120Z 3012/0118 VRB05KT P6SM FEW015 WS015/02025KT
     FM301700 26008KT P6SM SKC
     FM302100 28014G21KT P6SM SKC
     FM010100 27011G18KT P6SM SKC
     FM010400 28006KT P6SM SKC
     FM010800 VRB03KT P6SM SKC=



000
FTUS46 KMTR 301120
TAFMRY
TAF
KMRY 301120Z 3012/0112 23008KT P6SM FEW009
      TEMPO 3012/3014 BKN008
     FM301500 28009KT P6SM SKC
     FM301800 28010G16KT P6SM SKC
     FM010300 VRB04KT P6SM SKC=



000
FTUS46 KMTR 301120
TAFSTS
TAF
KSTS 301120Z 3012/0112 34012KT P6SM SKC
     FM301600 35015G21KT P6SM SKC
     FM302100 33008G15KT P6SM SKC
     FM010400 34004KT P6SM SKC=



000
FTUS46 KMTR 301120
TAFMRY
TAF
KMRY 301120Z 3012/0112 23008KT P6SM FEW009
      TEMPO 3012/3014 BKN008
     FM301500 28009KT P6SM SKC
     FM301800 28010G16KT P6SM SKC
     FM010300 VRB04KT P6SM SKC=



000
FTUS46 KMTR 301120
TAFSNS
TAF
KSNS 301120Z 3012/0112 24008KT P6SM SKC
     FM301300 28008KT P6SM SCT018
     FM301800 27016G24KT P6SM SKC
     FM010300 25009KT P6SM SKC
     FM010500 VRB03KT P6SM SKC=



000
FTUS46 KMTR 301120
TAFLVK
TAF
KLVK 301120Z 3012/0112 VRB04KT P6SM SKC
     FM302200 VRB06KT P6SM SKC
     FM010300 VRB03KT P6SM SKC=



000
FTUS46 KMTR 301120
TAFSFO
TAF
KSFO 301120Z 3012/0118 29013G20KT P6SM SKC
     FM302000 28016G24KT P6SM SKC
     FM302200 28022G29KT P6SM SKC
     FM010400 28011G18KT P6SM SKC
     FM010800 VRB04KT P6SM SKC=



000
FTUS46 KMTR 301120
TAFSNS
TAF
KSNS 301120Z 3012/0112 24008KT P6SM SKC
     FM301300 28008KT P6SM SCT018
     FM301800 27016G24KT P6SM SKC
     FM010300 25009KT P6SM SKC
     FM010500 VRB03KT P6SM SKC=



000
FTUS46 KMTR 301120
TAFSJC
TAF
KSJC 301120Z 3012/0112 VRB03KT P6SM SKC
     FM301800 31014G21KT P6SM SKC
     FM010300 32008KT P6SM SKC
     FM010500 VRB03KT P6SM SKC=



000
FTUS46 KMTR 301120
TAFSJC
TAF
KSJC 301120Z 3012/0112 VRB03KT P6SM SKC
     FM301800 31014G21KT P6SM SKC
     FM010300 32008KT P6SM SKC
     FM010500 VRB03KT P6SM SKC=



000
FTUS46 KMTR 301120
TAFOAK
TAF
KOAK 301120Z 3012/0118 VRB05KT P6SM FEW015 WS015/02025KT
     FM301700 26008KT P6SM SKC
     FM302100 28014G21KT P6SM SKC
     FM010100 27011G18KT P6SM SKC
     FM010400 28006KT P6SM SKC
     FM010800 VRB03KT P6SM SKC=



000
FTUS46 KMTR 301120
TAFSFO
TAF
KSFO 301120Z 3012/0118 29013G20KT P6SM SKC
     FM302000 28016G24KT P6SM SKC
     FM302200 28022G29KT P6SM SKC
     FM010400 28011G18KT P6SM SKC
     FM010800 VRB04KT P6SM SKC=



000
FTUS46 KMTR 301120
TAFSTS
TAF
KSTS 301120Z 3012/0112 34012KT P6SM SKC
     FM301600 35015G21KT P6SM SKC
     FM302100 33008G15KT P6SM SKC
     FM010400 34004KT P6SM SKC=



000
FTUS46 KMTR 300900 AAB
TAFSFO
TAF AMD
KSFO 300900Z 3009/0112 27013KT P6SM SKC
     FM301600 30008KT P6SM FEW015
     FM302000 28018KT P6SM SKC
     FM302200 28022G29KT P6SM SKC
     FM010400 28010KT P6SM SKC
     FM010800 VRB03KT P6SM SKC=



000
FTUS46 KMTR 300719 AAA
TAFSFO
TAF AMD
KSFO 300719Z 3007/0112 27016G23KT P6SM SKC
     FM301000 27013KT P6SM FEW015
     FM301600 30008KT P6SM FEW015
     FM302000 28018KT P6SM SKC
     FM302200 28022G29KT P6SM SKC
     FM010400 28010KT P6SM SKC
     FM010800 VRB03KT P6SM SKC=



000
FTUS46 KMTR 300719 AAA
TAFSFO
TAF AMD
KSFO 300719Z 3007/0112 27016G23KT P6SM SKC
     FM301000 27013KT P6SM FEW015
     FM301600 30008KT P6SM FEW015
     FM302000 28018KT P6SM SKC
     FM302200 28022G29KT P6SM SKC
     FM010400 28010KT P6SM SKC
     FM010800 VRB03KT P6SM SKC=



000
FTUS46 KMTR 300537
TAFOAK
TAF
KOAK 300537Z 3006/0112 27012KT P6SM FEW015
     FM300800 VRB04KT P6SM FEW015 WS015/02025KT
     FM301700 26008KT P6SM SKC
     FM302000 28015KT P6SM SKC
     FM010400 28006KT P6SM SKC
     FM010800 VRB03KT P6SM SKC=



000
FTUS46 KMTR 300537
TAFSFO
TAF
KSFO 300537Z 3006/0112 27020G30KT P6SM FEW015
     FM301000 27013KT P6SM FEW015
     FM301600 30008KT P6SM FEW015
     FM302000 28018KT P6SM SKC
     FM302200 28022G29KT P6SM SKC
     FM010400 28010KT P6SM SKC
     FM010800 VRB03KT P6SM SKC=



000
FTUS46 KMTR 300537
TAFSTS
TAF
KSTS 300537Z 3006/0106 33012G20KT P6SM SKC
     FM010200 33008KT P6SM SKC=



000
FTUS46 KMTR 300537
TAFMRY
TAF
KMRY 300537Z 3006/0106 23009KT P6SM BKN015
     FM301600 28009KT P6SM FEW015
     FM302000 27012KT P6SM SKC
     FM010300 24005KT P6SM SKC=



000
FTUS46 KMTR 300537
TAFSJC
TAF
KSJC 300537Z 3006/0106 29010KT P6SM FEW030
     FM300900 VRB03KT P6SM SKC
     FM301800 31016G21KT P6SM SKC
     FM010300 32008KT P6SM SKC=



000
FTUS46 KMTR 300537
TAFLVK
TAF
KLVK 300537Z 3006/0106 23007KT P6SM SKC
     FM300800 VRB03KT P6SM SKC
     FM301400 01012KT P6SM SKC
     FM302200 32006KT P6SM SKC
     FM010300 VRB03KT P6SM SKC=



000
FTUS46 KMTR 300537
TAFSNS
TAF
KSNS 300537Z 3006/0106 24010KT P6SM BKN015
     FM301300 28008KT P6SM SCT018
     FM301800 27013G20KT P6SM SKC
     FM010300 26007KT P6SM SKC=



000
FTUS46 KMTR 300302 AAA
TAFSFO
TAF AMD
KSFO 300302Z 3003/0106 27030G40KT P6SM FEW015
     FM300400 27023G33KT P6SM FEW015
     FM300800 28018G26KT P6SM FEW015
     FM301000 27011KT P6SM FEW015
     FM301600 29008KT P6SM FEW015
     FM302000 28018G25KT P6SM SKC
     FM010400 28010KT P6SM SKC=



000
FTUS46 KMTR 300302 AAA
TAFSFO
TAF AMD
KSFO 300302Z 3003/0106 27030G40KT P6SM FEW015
     FM300400 27023G33KT P6SM FEW015
     FM300800 28018G26KT P6SM FEW015
     FM301000 27011KT P6SM FEW015
     FM301600 29008KT P6SM FEW015
     FM302000 28018G25KT P6SM SKC
     FM010400 28010KT P6SM SKC=



000
FTUS46 KMTR 292323
TAFMRY
TAF
KMRY 292323Z 3000/3024 25014G20KT P6SM BKN015
      TEMPO 3000/3003 SCT015
     FM300300 23009KT P6SM OVC012
     FM301600 28009KT P6SM FEW015
     FM302000 27012KT P6SM SKC=



000
FTUS46 KMTR 292323
TAFSFO
TAF
KSFO 292323Z 3000/0106 27030G39KT P6SM FEW015
     FM300400 27022G32KT P6SM SCT015
     FM300800 28018G26KT P6SM SCT015
     FM301000 27011KT P6SM FEW015
     FM301600 29008KT P6SM FEW015
     FM302000 28018G25KT P6SM SKC
     FM010400 28010KT P6SM SKC=



000
FTUS46 KMTR 292323
TAFSJC
TAF
KSJC 292323Z 3000/3024 31016G24KT P6SM SKC
     FM300400 31011G18KT P6SM SKC
     FM300600 31006KT P6SM SKC
     FM301100 VRB03KT P6SM SKC
     FM301800 31016G21KT P6SM SKC=



000
FTUS46 KMTR 292323
TAFLVK
TAF
KLVK 292323Z 3000/3024 26012G18KT P6SM SKC
     FM300400 23007KT P6SM SKC
     FM300600 VRB04KT P6SM SKC
     FM301400 02005KT P6SM SKC
     FM301900 35015KT P6SM SKC=



000
FTUS46 KMTR 292323
TAFOAK
TAF
KOAK 292323Z 3000/0106 26018G24KT P6SM FEW015
     FM300500 25012KT P6SM SCT015
     FM300800 VRB04KT P6SM FEW015 WS015/02025KT
     FM301700 26008KT P6SM SKC
     FM302000 28013KT P6SM SKC
     FM010400 28006KT P6SM SKC=



000
FTUS46 KMTR 292323
TAFSTS
TAF
KSTS 292323Z 3000/3024 33018G24KT P6SM SKC
     FM301000 34010KT P6SM SKC
     FM301700 35015G21KT P6SM SKC=



000
FTUS46 KMTR 292323
TAFSNS
TAF
KSNS 292323Z 3000/3024 25016G21KT P6SM BKN018
      TEMPO 3000/3003 SCT018
     FM300600 24010KT P6SM BKN015
     FM301300 28008KT P6SM SCT018
     FM301800 27015G20KT P6SM SKC=



000
FTUS46 KMTR 292158 AAA
TAFSNS
TAF AMD
KSNS 292158Z 2922/3018 26014G20KT P6SM BKN019
     FM300200 25010KT P6SM BKN012
     FM301100 25008KT P6SM SCT012
     FM301700 27015G20KT P6SM FEW015=



000
FTUS46 KMTR 292156 AAB
TAFMRY
TAF AMD
KMRY 292156Z 2922/3018 24010KT P6SM OVC015
     FM300300 26009KT P6SM OVC012
     FM301500 27008G15KT P6SM SKC=



000
FTUS46 KMTR 292156 AAB
TAFMRY
TAF AMD
KMRY 292156Z 2922/3018 24010KT P6SM OVC015
     FM300300 26009KT P6SM OVC012
     FM301500 27008G15KT P6SM SKC=



000
FTUS46 KMTR 292103 AAA
TAFSFO
TAF AMD
KSFO 292103Z 2921/3024 26028G37KT P6SM FEW020 SCT200
     FM300100 27030G39KT P6SM SKC
     FM300500 27022G32KT P6SM SCT015
     FM300800 28018G26KT P6SM BKN015
     FM301000 27011KT P6SM BKN015
     FM301600 28006KT P6SM FEW015
     FM302000 29013G18KT P6SM FEW015=



000
FTUS46 KMTR 292102 AAA
TAFMRY
TAF AMD
KMRY 292102Z 2921/3018 24010KT P6SM OVC015
     FM292200 26013G20KT P6SM SCT015
     FM300300 26009KT P6SM OVC012
     FM301500 27008G15KT P6SM SKC=



000
FTUS46 KMTR 291731
TAFSTS
TAF
KSTS 291731Z 2918/3018 VRB02KT P6SM SCT250
     FM291900 33009KT P6SM SKC
     FM292200 31015G21KT P6SM SKC
     FM300100 31020G28KT P6SM SKC
     FM300400 32013G18KT P6SM SKC
     FM301000 34012KT P6SM SKC=



000
FTUS46 KMTR 291731
TAFSJC
TAF
KSJC 291731Z 2918/3018 15005KT P6SM FEW015
     FM291900 29009KT P6SM FEW015
     FM292100 30011G18KT P6SM SKC
     FM300000 31018G26KT P6SM SKC
     FM300400 31011G18KT P6SM FEW018
     FM300600 31006KT P6SM SCT015
     FM301100 VRB03KT P6SM SCT015=



000
FTUS46 KMTR 291731
TAFMRY
TAF
KMRY 291731Z 2918/3018 25008KT P6SM OVC013
     FM292000 26013G20KT P6SM SCT015
     FM300300 26009KT P6SM OVC012
     FM301500 27008G15KT P6SM SKC=



000
FTUS46 KMTR 291731
TAFSFO
TAF
KSFO 291731Z 2918/3024 VRB04KT P6SM FEW015 SCT160
     FM292000 28018G25KT P6SM FEW160
     FM292200 27023G34KT P6SM SKC
     FM300100 27030G39KT P6SM SKC
     FM300500 27022G32KT P6SM SCT015
     FM300800 28018G26KT P6SM BKN015
     FM301000 27011KT P6SM BKN015
     FM301600 28006KT P6SM FEW015
     FM302000 29013G18KT P6SM FEW015=



000
FTUS46 KMTR 291731
TAFSNS
TAF
KSNS 291731Z 2918/3018 25011KT P6SM OVC013
     FM291900 25014G20KT P6SM SCT015
     FM292100 26016G24KT P6SM FEW016
     FM300000 26020G28KT P6SM SCT015
     FM300200 25010KT P6SM BKN012
     FM301100 25008KT P6SM SCT012
     FM301700 27015G20KT P6SM FEW015=



000
FTUS46 KMTR 291731
TAFLVK
TAF
KLVK 291731Z 2918/3018 VRB04KT P6SM FEW015
     FM292100 27012G18KT P6SM SKC
     FM300400 23008G15KT P6SM SKC
     FM300800 VRB04KT P6SM FEW015
     FM301400 02005KT P6SM SKC=



000
FTUS46 KMTR 291731
TAFOAK
TAF
KOAK 291731Z 2918/3024 19008KT P6SM SCT015
     FM291900 27012G18KT P6SM FEW015
     FM292100 26018G24KT P6SM SKC
     FM300200 26020G28KT P6SM FEW015
     FM300500 25014G21KT P6SM SCT015
     FM300800 19004KT P6SM FEW015
     FM301700 26008KT P6SM SKC
     FM302000 28013KT P6SM SKC=



000
FTUS46 KMTR 291421 AAA
TAFOAK
TAF AMD
KOAK 291421Z 2914/3018 18006KT P6SM SCT012 BKN200
     FM291700 22008KT P6SM SCT015
     FM291900 27012G18KT P6SM FEW015
     FM292100 26018G24KT P6SM SKC
     FM300200 26020G28KT P6SM FEW015
     FM300500 25014G21KT P6SM SCT015
     FM300800 VRB04KT P6SM FEW015
     FM301700 27014G21KT P6SM SKC=



000
FTUS46 KMTR 291419 AAA
TAFSFO
TAF AMD
KSFO 291419Z 2914/3018 25007KT P6SM FEW015 BKN160
     FM291700 29010KT P6SM FEW015
     FM292000 27018G25KT P6SM SKC
     FM292300 27026G34KT P6SM SKC
     FM300200 27030G39KT P6SM SKC
     FM300500 27024G32KT P6SM SCT015
     FM300800 28018G26KT P6SM BKN015
     FM301000 27011KT P6SM BKN015
     FM301600 28006KT P6SM FEW015=



000
FTUS46 KMTR 291120
TAFSTS
TAF
KSTS 291120Z 2912/3012 VRB02KT P6SM FEW250
     FM291400 VRB03KT P6SM SCT015
      TEMPO 2914/2916 BKN015
     FM291700 32006KT P6SM FEW015
     FM291900 33009G16KT P6SM SKC
     FM292200 31015G21KT P6SM SKC
     FM300100 31020G28KT P6SM SKC
     FM300400 32016G24KT P6SM SKC
     FM301000 34012G18KT P6SM SKC=



000
FTUS46 KMTR 291120
TAFSJC
TAF
KSJC 291120Z 2912/3012 15005KT P6SM BKN015
     FM291600 VRB05KT P6SM SCT018
     FM291800 32006KT P6SM FEW020
     FM292100 30011G18KT P6SM SKC
     FM300000 31018G26KT P6SM SKC
     FM300400 31011G18KT P6SM FEW018
     FM300600 31006KT P6SM SCT015=



000
FTUS46 KMTR 291120
TAFMRY
TAF
KMRY 291120Z 2912/3012 22008KT P6SM OVC012
     FM291900 26013G20KT P6SM SCT015
     FM300300 26011G18KT P6SM BKN012=



000
FTUS46 KMTR 291120
TAFSFO
TAF
KSFO 291120Z 2912/3018 26010KT P6SM SCT012
      TEMPO 2912/2916 BKN012
     FM291600 28008KT P6SM SCT015
     FM291700 29010KT P6SM FEW015
     FM292000 27018G25KT P6SM SKC
     FM292300 27026G34KT P6SM SKC
     FM300200 27030G39KT P6SM SKC
     FM300500 27024G32KT P6SM SCT015
     FM300800 28018G26KT P6SM BKN015
     FM301000 27011KT P6SM BKN015
     FM301600 28006KT P6SM FEW015=



000
FTUS46 KMTR 291120
TAFOAK
TAF
KOAK 291120Z 2912/3018 21008KT P6SM BKN012
     FM291700 22008KT P6SM SCT015
     FM291900 27012G18KT P6SM FEW015
     FM292100 26018G24KT P6SM SKC
     FM300200 26020G28KT P6SM FEW015
     FM300500 25014G21KT P6SM SCT015
     FM300800 VRB04KT P6SM FEW015
     FM301700 27014G21KT P6SM SKC=



000
FTUS46 KMTR 291120
TAFSTS
TAF
KSTS 291120Z 2912/3012 VRB02KT P6SM FEW250
     FM291400 VRB03KT P6SM SCT015
      TEMPO 2914/2916 BKN015
     FM291700 32006KT P6SM FEW015
     FM291900 33009G16KT P6SM SKC
     FM292200 31015G21KT P6SM SKC
     FM300100 31020G28KT P6SM SKC
     FM300400 32016G24KT P6SM SKC
     FM301000 34012G18KT P6SM SKC=



000
FTUS46 KMTR 291120
TAFLVK
TAF
KLVK 291120Z 2912/3012 VRB06KT P6SM FEW015
     FM292100 27012G18KT P6SM SKC
     FM300400 23008G15KT P6SM SKC
     FM300800 VRB04KT P6SM FEW015=



000
FTUS46 KMTR 291120
TAFMRY
TAF
KMRY 291120Z 2912/3012 22008KT P6SM OVC012
     FM291900 26013G20KT P6SM SCT015
     FM300300 26011G18KT P6SM BKN012=



000
FTUS46 KMTR 291120
TAFSNS
TAF
KSNS 291120Z 2912/3012 24009KT P6SM OVC013
     FM291900 25014G20KT P6SM SCT015
     FM292100 26016G24KT P6SM FEW016
     FM300000 26020G28KT P6SM SCT015
     FM300200 25014G21KT P6SM BKN012=



000
FTUS46 KMTR 291120
TAFSJC
TAF
KSJC 291120Z 2912/3012 15005KT P6SM BKN015
     FM291600 VRB05KT P6SM SCT018
     FM291800 32006KT P6SM FEW020
     FM292100 30011G18KT P6SM SKC
     FM300000 31018G26KT P6SM SKC
     FM300400 31011G18KT P6SM FEW018
     FM300600 31006KT P6SM SCT015=



000
FTUS46 KMTR 291120
TAFLVK
TAF
KLVK 291120Z 2912/3012 VRB06KT P6SM FEW015
     FM292100 27012G18KT P6SM SKC
     FM300400 23008G15KT P6SM SKC
     FM300800 VRB04KT P6SM FEW015=



000
FTUS46 KMTR 291120
TAFSNS
TAF
KSNS 291120Z 2912/3012 24009KT P6SM OVC013
     FM291900 25014G20KT P6SM SCT015
     FM292100 26016G24KT P6SM FEW016
     FM300000 26020G28KT P6SM SCT015
     FM300200 25014G21KT P6SM BKN012=



000
FTUS46 KMTR 290901 AAA
TAFSFO
TAF AMD
KSFO 290901Z 2909/3012 27011KT P6SM FEW015
      TEMPO 2909/2913 BKN015
     FM291300 29007KT P6SM SCT015
      TEMPO 2913/2917 BKN015
     FM291700 29008KT P6SM FEW015
     FM292000 27018G25KT P6SM SKC
     FM292300 27026G34KT P6SM SKC
     FM300500 27018G25KT P6SM FEW015
     FM300800 28010KT P6SM SCT015=



000
FTUS46 KMTR 290542
TAFMRY
TAF
KMRY 290542Z 2906/3006 22007KT P6SM OVC012
     FM291900 27008KT P6SM SCT015
     FM292200 26013G18KT P6SM FEW015=



000
FTUS46 KMTR 290542
TAFSJC
TAF
KSJC 290542Z 2906/3006 33008KT P6SM FEW012
     FM290900 14006KT P6SM FEW012
     FM291200 15005KT P6SM BKN015
     FM291600 13007KT P6SM SCT018
     FM291800 32005KT P6SM SKC
     FM292100 30015G21KT P6SM SKC
     FM300400 31007KT P6SM SKC=



000
FTUS46 KMTR 290542
TAFOAK
TAF
KOAK 290542Z 2906/3012 26007KT P6SM FEW012
     FM290900 23006KT P6SM BKN015
     FM291700 25008KT P6SM SCT018
     FM292000 27018KT P6SM SKC
     FM300500 25010KT P6SM SCT020=



000
FTUS46 KMTR 290542
TAFSNS
TAF
KSNS 290542Z 2906/3006 25012KT P6SM SCT013
     FM290800 25009KT P6SM OVC013
     FM291800 25006KT P6SM FEW015
     FM292100 26015G21KT P6SM SKC=



000
FTUS46 KMTR 290542
TAFSTS
TAF
KSTS 290542Z 2906/3006 32006KT P6SM SKC
     FM291300 34004KT P6SM BKN010
     FM291600 32005KT P6SM SCT015
     FM291900 28008KT P6SM SKC
     FM292300 30013G19KT P6SM SKC=



000
FTUS46 KMTR 290542
TAFLVK
TAF
KLVK 290542Z 2906/3006 25005KT P6SM SKC
     FM291100 VRB04KT P6SM BKN015
     FM291600 25004KT P6SM FEW018
     FM292100 27014KT P6SM SKC
     FM300400 23007KT P6SM SKC=



000
FTUS46 KMTR 290542
TAFSFO
TAF
KSFO 290542Z 2906/3012 26016KT P6SM FEW012
     FM290900 27011KT P6SM BKN015
     FM291700 29008KT P6SM FEW015
     FM292000 27018G25KT P6SM SKC
     FM292300 27026G34KT P6SM SKC
     FM300500 27018G25KT P6SM FEW015
     FM300800 28010KT P6SM SCT015=



000
FTUS46 KMTR 290542
TAFOAK
TAF
KOAK 290542Z 2906/3012 26007KT P6SM FEW012
     FM290900 23006KT P6SM BKN015
     FM291700 25008KT P6SM SCT018
     FM292000 27018KT P6SM SKC
     FM300500 25010KT P6SM SCT020=



000
FTUS46 KMTR 290542
TAFSTS
TAF
KSTS 290542Z 2906/3006 32006KT P6SM SKC
     FM291300 34004KT P6SM BKN010
     FM291600 32005KT P6SM SCT015
     FM291900 28008KT P6SM SKC
     FM292300 30013G19KT P6SM SKC=



000
FTUS46 KMTR 290542
TAFSJC
TAF
KSJC 290542Z 2906/3006 33008KT P6SM FEW012
     FM290900 14006KT P6SM FEW012
     FM291200 15005KT P6SM BKN015
     FM291600 13007KT P6SM SCT018
     FM291800 32005KT P6SM SKC
     FM292100 30015G21KT P6SM SKC
     FM300400 31007KT P6SM SKC=



000
FTUS46 KMTR 290542
TAFSFO
TAF
KSFO 290542Z 2906/3012 26016KT P6SM FEW012
     FM290900 27011KT P6SM BKN015
     FM291700 29008KT P6SM FEW015
     FM292000 27018G25KT P6SM SKC
     FM292300 27026G34KT P6SM SKC
     FM300500 27018G25KT P6SM FEW015
     FM300800 28010KT P6SM SCT015=



000
FTUS46 KMTR 290542
TAFLVK
TAF
KLVK 290542Z 2906/3006 25005KT P6SM SKC
     FM291100 VRB04KT P6SM BKN015
     FM291600 25004KT P6SM FEW018
     FM292100 27014KT P6SM SKC
     FM300400 23007KT P6SM SKC=



000
FTUS46 KMTR 290542
TAFMRY
TAF
KMRY 290542Z 2906/3006 22007KT P6SM OVC012
     FM291900 27008KT P6SM SCT015
     FM292200 26013G18KT P6SM FEW015=



000
FTUS46 KMTR 290542
TAFSNS
TAF
KSNS 290542Z 2906/3006 25012KT P6SM SCT013
     FM290800 25009KT P6SM OVC013
     FM291800 25006KT P6SM FEW015
     FM292100 26015G21KT P6SM SKC=



000
FTUS46 KMTR 290308 AAA
TAFSFO
TAF AMD
KSFO 290308Z 2903/3006 27019G29KT P6SM FEW012
     FM290500 28015G22KT P6SM FEW012
     FM290800 28011KT P6SM BKN015
     FM291700 29008KT P6SM FEW015
     FM292000 27018G25KT P6SM SCT200
     FM292300 27023G32KT P6SM SKC
     FM300500 27018G25KT P6SM FEW015=



    US Dept of Commerce
    National Oceanic and Atmospheric Administration
    National Weather Service
    1325 East West Highway
    Silver Spring, MD 20910
    Page Author: NWS Internet Services Team
Disclaimer
Information Quality
Credits
Glossary
Privacy Policy
Freedom of Information Act (FOIA)
About Us
Career Opportunities